Time;durP1;ratioP1;P1;durP2;ratioP2;P2;SDS_P1;SDS_P2;PMS_P1;PMS_P2;Temp;Humidity;BMP_temperature;BMP_pressure;BME280_temperature;BME280_humidity;BME280_pressure;Samples;Min_cycle;Max_cycle;Signal;HPM_P1;HPM_P2
2023/12/13 00:00:46;;;;;;;9.82;6.05;;;;;;;;;;10286542;28;20047;-53
2023/12/13 00:05:47;;;;;;;7.95;5.35;;;;;;;;;;10287472;28;20026;-54
2023/12/13 00:10:48;;;;;;;10.38;5.10;;;;;;;;;;10286991;28;20034;-54
2023/12/13 00:15:48;;;;;;;9.50;5.38;;;;;;;;;;10287472;28;20030;-54
2023/12/13 00:20:49;;;;;;;8.68;5.53;;;;;;;;;;10285934;28;20391;-54
2023/12/13 00:25:49;;;;;;;9.00;5.72;;;;;;;;;;10284979;28;20333;-54
2023/12/13 00:30:50;;;;;;;8.30;5.43;;;;;;;;;;10286750;28;20580;-55
2023/12/13 00:35:51;;;;;;;7.43;4.85;;;;;;;;;;10286377;28;20035;-54
2023/12/13 00:40:51;;;;;;;6.15;5.00;;;;;;;;;;10286499;28;20022;-55
2023/12/13 00:45:52;;;;;;;7.28;5.05;;;;;;;;;;10286395;28;20031;-53
2023/12/13 00:50:54;;;;;;;17.08;5.78;;;;;;;;;;10286345;28;20031;-55
2023/12/13 00:55:55;;;;;;;8.23;5.15;;;;;;;;;;10286424;28;20031;-55
2023/12/13 01:00:55;;;;;;;6.72;5.43;;;;;;;;;;10285767;28;20502;-55
2023/12/13 01:05:56;;;;;;;6.00;4.90;;;;;;;;;;10285792;28;20474;-54
2023/12/13 01:10:56;;;;;;;5.72;4.82;;;;;;;;;;10288086;28;20493;-54
2023/12/13 01:15:57;;;;;;;5.63;4.57;;;;;;;;;;10294107;28;20037;-55
2023/12/13 01:20:57;;;;;;;6.30;4.90;;;;;;;;;;10293687;28;20054;-55
2023/12/13 01:25:58;;;;;;;6.38;4.30;;;;;;;;;;10293381;28;20027;-56
2023/12/13 01:30:59;;;;;;;5.13;4.32;;;;;;;;;;10293603;28;20031;-58
2023/12/13 01:36:02;;;;;;;5.18;4.35;;;;;;;;;;10294180;28;20042;-56
2023/12/13 01:41:03;;;;;;;6.97;4.38;;;;;;;;;;10293645;28;20131;-54
2023/12/13 01:46:04;;;;;;;7.18;4.63;;;;;;;;;;10293145;28;20111;-55
2023/12/13 01:51:05;;;;;;;6.25;4.75;;;;;;;;;;10292063;28;20525;-56
2023/12/13 01:56:09;;;;;;;7.20;4.68;;;;;;;;;;10292507;28;20023;-57
2023/12/13 02:01:10;;;;;;;5.00;4.40;;;;;;;;;;10304088;23;20582;-70
2023/12/13 02:06:10;;;;;;;6.88;4.40;;;;;;;;;;10291862;28;20264;-70
2023/12/13 02:11:11;;;;;;;5.47;4.38;;;;;;;;;;10292032;28;20045;-70
2023/12/13 02:16:12;;;;;;;7.18;4.82;;;;;;;;;;10291322;28;20086;-71
2023/12/13 02:21:13;;;;;;;5.75;4.53;;;;;;;;;;10273771;28;20541;-70
2023/12/13 02:26:13;;;;;;;6.57;4.28;;;;;;;;;;10291412;28;20172;-67
2023/12/13 02:31:16;;;;;;;6.20;4.40;;;;;;;;;;10290732;28;20034;-66
2023/12/13 02:36:16;;;;;;;6.18;4.45;;;;;;;;;;10289827;28;20039;-66
2023/12/13 02:41:17;;;;;;;7.05;4.65;;;;;;;;;;10290496;28;20478;-67
2023/12/13 02:46:17;;;;;;;5.13;4.28;;;;;;;;;;10290216;28;20023;-67
2023/12/13 02:51:18;;;;;;;5.88;4.03;;;;;;;;;;10290509;28;20368;-67
2023/12/13 02:56:19;;;;;;;5.38;4.10;;;;;;;;;;10289988;28;20046;-68
2023/12/13 03:01:19;;;;;;;5.28;4.22;;;;;;;;;;10289397;28;20042;-71
2023/12/13 03:06:20;;;;;;;4.82;3.92;;;;;;;;;;10289959;28;20026;-73
2023/12/13 03:11:21;;;;;;;5.43;3.80;;;;;;;;;;10289259;28;20114;-71
2023/12/13 03:16:21;;;;;;;5.05;3.95;;;;;;;;;;10289891;28;20039;-73
2023/12/13 03:21:22;;;;;;;5.38;4.03;;;;;;;;;;10290138;28;20038;-75
2023/12/13 03:26:23;;;;;;;4.55;3.92;;;;;;;;;;10289190;28;20073;-75
2023/12/13 03:31:23;;;;;;;4.75;4.18;;;;;;;;;;10289122;28;20287;-75
2023/12/13 03:36:24;;;;;;;5.78;3.80;;;;;;;;;;10288183;28;20034;-74
2023/12/13 03:41:25;;;;;;;4.85;3.80;;;;;;;;;;10288696;28;20026;-75
2023/12/13 03:46:25;;;;;;;4.47;3.90;;;;;;;;;;10288331;28;20463;-74
2023/12/13 03:51:26;;;;;;;4.68;3.60;;;;;;;;;;10287899;28;20074;-75
2023/12/13 03:56:29;;;;;;;4.40;3.65;;;;;;;;;;10287856;28;20035;-71
2023/12/13 04:01:29;;;;;;;6.43;3.97;;;;;;;;;;10287792;28;20190;-71
2023/12/13 04:06:30;;;;;;;4.97;4.22;;;;;;;;;;10287283;28;20035;-70
2023/12/13 04:11:31;;;;;;;5.13;3.78;;;;;;;;;;10287533;28;20034;-71
2023/12/13 04:16:32;;;;;;;4.50;3.58;;;;;;;;;;10286931;28;20394;-71
2023/12/13 04:21:33;;;;;;;5.28;4.10;;;;;;;;;;10287329;28;20041;-71
2023/12/13 04:26:33;;;;;;;6.75;3.42;;;;;;;;;;10269349;28;20038;-71
2023/12/13 04:31:34;;;;;;;4.13;3.72;;;;;;;;;;10268849;28;20089;-71
2023/12/13 04:36:34;;;;;;;4.30;3.50;;;;;;;;;;10287197;28;20030;-71
2023/12/13 04:41:38;;;;;;;4.72;3.60;;;;;;;;;;10285993;28;20094;-70
2023/12/13 04:46:40;;;;;;;4.47;3.42;;;;;;;;;;10286554;28;20031;-68
2023/12/13 04:51:40;;;;;;;3.42;3.10;;;;;;;;;;10286119;28;20479;-70
2023/12/13 04:56:41;;;;;;;4.40;3.30;;;;;;;;;;10286059;28;20057;-68
2023/12/13 05:01:42;;;;;;;4.07;3.20;;;;;;;;;;10285776;28;20050;-68
2023/12/13 05:06:42;;;;;;;3.85;3.33;;;;;;;;;;10286047;28;20035;-69
2023/12/13 05:11:44;;;;;;;4.05;3.47;;;;;;;;;;10285855;28;20054;-68
2023/12/13 05:16:44;;;;;;;4.35;3.45;;;;;;;;;;10285776;28;20085;-68
2023/12/13 05:21:45;;;;;;;4.30;3.53;;;;;;;;;;10285314;28;20035;-68
2023/12/13 05:26:46;;;;;;;4.97;3.25;;;;;;;;;;10285286;28;20049;-68
2023/12/13 05:31:46;;;;;;;4.50;3.45;;;;;;;;;;10285284;28;20034;-68
2023/12/13 05:36:47;;;;;;;4.65;3.20;;;;;;;;;;10285446;28;20374;-68
2023/12/13 05:41:47;;;;;;;7.40;3.60;;;;;;;;;;10285056;28;20096;-69
2023/12/13 05:46:48;;;;;;;3.97;3.33;;;;;;;;;;10284976;28;20023;-70
2023/12/13 05:51:49;;;;;;;5.47;3.30;;;;;;;;;;10284584;28;20045;-68
2023/12/13 05:56:49;;;;;;;4.00;3.20;;;;;;;;;;10287155;28;20030;-67
2023/12/13 06:01:50;;;;;;;4.82;3.47;;;;;;;;;;10292013;28;20051;-68
2023/12/13 06:06:51;;;;;;;3.83;3.08;;;;;;;;;;10292470;28;20462;-68
2023/12/13 06:11:51;;;;;;;3.35;3.05;;;;;;;;;;10291448;28;20035;-68
2023/12/13 06:16:52;;;;;;;3.72;3.20;;;;;;;;;;10291228;28;20042;-72
2023/12/13 06:21:53;;;;;;;3.22;2.92;;;;;;;;;;10291290;28;20078;-69
2023/12/13 06:26:53;;;;;;;5.18;2.97;;;;;;;;;;10291159;28;20039;-67
2023/12/13 06:31:54;;;;;;;3.85;3.13;;;;;;;;;;10290178;28;20093;-70
2023/12/13 06:36:54;;;;;;;3.55;3.25;;;;;;;;;;10290643;28;20026;-69
2023/12/13 06:41:55;;;;;;;7.22;3.20;;;;;;;;;;10291563;28;20442;-71
2023/12/13 06:46:57;;;;;;;3.92;3.53;;;;;;;;;;10291244;28;20393;-66
2023/12/13 06:51:58;;;;;;;4.43;3.63;;;;;;;;;;10290121;28;20037;-66
2023/12/13 06:56:59;;;;;;;5.13;3.95;;;;;;;;;;10289237;28;20076;-65
2023/12/13 07:02:00;;;;;;;13.18;4.97;;;;;;;;;;10289390;28;20058;-64
2023/12/13 07:07:02;;;;;;;5.68;4.35;;;;;;;;;;10288677;28;20055;-65
2023/12/13 07:12:02;;;;;;;7.78;4.97;;;;;;;;;;10288219;28;20034;-65
2023/12/13 07:17:03;;;;;;;7.80;4.45;;;;;;;;;;10288412;28;20023;-64
2023/12/13 07:22:04;;;;;;;10.02;4.90;;;;;;;;;;10287423;28;20022;-64
2023/12/13 07:27:05;;;;;;;12.68;5.07;;;;;;;;;;10288668;28;20085;-65
2023/12/13 07:32:05;;;;;;;7.05;4.38;;;;;;;;;;10288601;28;20027;-64
2023/12/13 07:37:07;;;;;;;8.65;4.70;;;;;;;;;;10288367;28;20031;-65
2023/12/13 07:42:08;;;;;;;7.68;4.70;;;;;;;;;;10288699;28;20058;-65
2023/12/13 07:47:08;;;;;;;5.60;4.97;;;;;;;;;;10287835;28;20054;-65
2023/12/13 07:52:09;;;;;;;11.65;4.50;;;;;;;;;;10287848;28;20038;-64
2023/12/13 07:57:10;;;;;;;8.57;4.35;;;;;;;;;;10279346;28;20034;-64
2023/12/13 08:02:10;;;;;;;15.60;4.53;;;;;;;;;;10274562;28;20055;-65
2023/12/13 08:07:11;;;;;;;7.70;4.32;;;;;;;;;;10257251;28;20306;-64
2023/12/13 08:12:11;;;;;;;5.60;4.13;;;;;;;;;;10274176;28;20030;-64
2023/12/13 08:17:12;;;;;;;8.90;4.47;;;;;;;;;;10274809;28;20031;-65
2023/12/13 08:22:13;;;;;;;7.07;5.10;;;;;;;;;;10274566;28;20053;-64
2023/12/13 08:27:13;;;;;;;9.70;4.82;;;;;;;;;;10274526;28;20437;-65
2023/12/13 08:32:16;;;;;;;7.95;4.60;;;;;;;;;;10274196;28;20027;-64
2023/12/13 08:37:17;;;;;;;5.90;4.38;;;;;;;;;;10274025;28;20022;-64
2023/12/13 08:42:19;;;;;;;6.63;4.50;;;;;;;;;;10285448;28;20027;-65
2023/12/13 08:47:21;;;;;;;6.65;4.63;;;;;;;;;;10278712;28;20030;-64
2023/12/13 08:52:22;;;;;;;7.53;4.80;;;;;;;;;;10273706;28;20034;-65
2023/12/13 08:57:22;;;;;;;10.95;4.60;;;;;;;;;;10274243;28;20031;-65
2023/12/13 09:02:23;;;;;;;6.00;4.35;;;;;;;;;;10273464;28;20035;-64
2023/12/13 09:07:23;;;;;;;8.63;4.45;;;;;;;;;;10273875;28;20171;-64
2023/12/13 09:12:24;;;;;;;8.77;4.38;;;;;;;;;;10273087;28;20038;-64
2023/12/13 09:17:25;;;;;;;7.45;4.90;;;;;;;;;;10273569;28;20034;-64
2023/12/13 09:22:25;;;;;;;10.25;5.45;;;;;;;;;;10273649;28;20114;-64
2023/12/13 09:27:26;;;;;;;8.60;4.95;;;;;;;;;;10273305;28;20054;-64
2023/12/13 09:32:26;;;;;;;8.23;4.47;;;;;;;;;;10276449;28;20042;-64
2023/12/13 09:37:27;;;;;;;6.97;5.20;;;;;;;;;;10280371;28;20039;-64
2023/12/13 09:42:30;;;;;;;10.07;4.70;;;;;;;;;;10281189;28;20039;-64
2023/12/13 09:47:33;;;;;;;8.50;5.10;;;;;;;;;;10280524;28;20501;-64
2023/12/13 09:52:35;;;;;;;9.68;5.28;;;;;;;;;;10280868;28;20031;-64
2023/12/13 09:57:36;;;;;;;6.90;4.68;;;;;;;;;;10279675;28;20057;-64
2023/12/13 10:02:36;;;;;;;9.60;5.32;;;;;;;;;;10262654;28;20045;-64
2023/12/13 10:07:41;;;;;;;7.07;4.55;;;;;;;;;;10280445;28;20023;-64
2023/12/13 10:12:42;;;;;;;11.57;5.13;;;;;;;;;;10261930;28;20023;-64
2023/12/13 10:17:43;;;;;;;7.40;4.82;;;;;;;;;;10279390;28;20030;-64
2023/12/13 10:22:43;;;;;;;8.50;5.00;;;;;;;;;;10279306;28;20038;-64
2023/12/13 10:27:44;;;;;;;12.48;5.68;;;;;;;;;;10279029;28;20030;-64
2023/12/13 10:32:44;;;;;;;9.85;4.70;;;;;;;;;;10261649;28;20394;-65
2023/12/13 10:37:47;;;;;;;7.10;5.00;;;;;;;;;;10261638;28;20031;-64
2023/12/13 10:42:52;;;;;;;7.80;5.05;;;;;;;;;;10277921;28;20035;-65
2023/12/13 10:48:00;;;;;;;9.73;4.95;;;;;;;;;;10278295;28;20030;-65
2023/12/13 10:53:02;;;;;;;8.60;5.47;;;;;;;;;;10278233;28;20646;-65
2023/12/13 10:58:02;;;;;;;8.60;4.93;;;;;;;;;;10278088;28;20100;-66
2023/12/13 11:03:15;;;;;;;8.35;4.97;;;;;;;;;;10260960;28;20030;-65
2023/12/13 11:08:21;;;;;;;7.00;4.80;;;;;;;;;;10261070;28;20480;-68
2023/12/13 11:13:23;;;;;;;7.40;5.00;;;;;;;;;;10277206;28;20086;-68
2023/12/13 11:18:25;;;;;;;8.52;5.03;;;;;;;;;;10282248;28;20030;-65
2023/12/13 11:23:26;;;;;;;7.38;4.95;;;;;;;;;;10279896;28;20062;-65
2023/12/13 11:28:27;;;;;;;8.85;5.70;;;;;;;;;;10286219;28;20114;-65
2023/12/13 11:33:34;;;;;;;10.10;5.05;;;;;;;;;;10285562;28;20395;-65
2023/12/13 11:38:35;;;;;;;7.38;4.70;;;;;;;;;;10286260;28;20034;-65
2023/12/13 11:43:36;;;;;;;8.00;5.15;;;;;;;;;;10284801;28;20035;-65
2023/12/13 11:48:36;;;;;;;7.50;5.07;;;;;;;;;;10285904;28;20096;-65
2023/12/13 11:53:37;;;;;;;7.68;4.65;;;;;;;;;;10285358;28;20038;-65
2023/12/13 11:58:37;;;;;;;7.50;4.88;;;;;;;;;;10285003;28;20487;-65
2023/12/13 12:03:38;;;;;;;7.80;4.95;;;;;;;;;;10268981;28;20471;-65
2023/12/13 12:08:39;;;;;;;7.53;5.18;;;;;;;;;;10285000;28;20108;-65
2023/12/13 12:13:41;;;;;;;10.07;5.38;;;;;;;;;;10283374;28;20031;-65
2023/12/13 12:18:42;;;;;;;5.95;4.70;;;;;;;;;;10265229;28;20022;-65
2023/12/13 12:23:47;;;;;;;7.50;4.95;;;;;;;;;;10285221;28;20031;-65
2023/12/13 12:28:48;;;;;;;7.15;4.95;;;;;;;;;;10282470;28;20045;-65
2023/12/13 12:33:59;;;;;;;6.35;4.88;;;;;;;;;;10281752;28;20486;-65
2023/12/13 12:39:00;;;;;;;8.07;5.05;;;;;;;;;;10283055;28;20263;-65
2023/12/13 12:44:02;;;;;;;7.00;5.10;;;;;;;;;;10266251;28;20208;-65
2023/12/13 12:49:03;;;;;;;8.25;4.80;;;;;;;;;;10283305;28;20066;-66
2023/12/13 12:54:07;;;;;;;11.90;4.85;;;;;;;;;;10284072;28;20050;-66
2023/12/13 12:59:14;;;;;;;11.80;5.35;;;;;;;;;;10266959;28;20051;-66
2023/12/13 13:04:14;;;;;;;10.38;5.28;;;;;;;;;;10284850;28;20031;-66
2023/12/13 13:09:16;;;;;;;10.23;5.68;;;;;;;;;;10291819;28;20379;-66
2023/12/13 13:14:17;;;;;;;7.32;5.20;;;;;;;;;;10292540;28;20064;-66
2023/12/13 13:19:17;;;;;;;10.63;5.20;;;;;;;;;;10286361;28;20027;-66
2023/12/13 13:24:18;;;;;;;5.95;4.95;;;;;;;;;;10281686;28;20287;-66
2023/12/13 13:29:18;;;;;;;7.10;4.55;;;;;;;;;;10280058;28;20035;-66
2023/12/13 13:34:19;;;;;;;8.80;4.93;;;;;;;;;;10280047;28;20023;-66
2023/12/13 13:39:20;;;;;;;7.18;4.63;;;;;;;;;;10279242;28;20026;-66
2023/12/13 13:44:20;;;;;;;6.25;4.30;;;;;;;;;;10278725;28;20027;-65
2023/12/13 13:49:21;;;;;;;6.68;4.90;;;;;;;;;;10278524;28;20035;-66
2023/12/13 13:54:22;;;;;;;6.00;4.70;;;;;;;;;;10279161;28;20034;-66
2023/12/13 13:59:22;;;;;;;7.70;4.60;;;;;;;;;;10279235;28;20750;-66
2023/12/13 14:04:24;;;;;;;5.63;4.10;;;;;;;;;;10279743;28;20110;-66
2023/12/13 14:09:24;;;;;;;4.57;4.00;;;;;;;;;;10287265;28;20037;-66
2023/12/13 14:14:25;;;;;;;8.27;4.75;;;;;;;;;;10288967;28;20034;-66
2023/12/13 14:19:25;;;;;;;5.85;4.13;;;;;;;;;;10286626;28;20034;-66
2023/12/13 14:24:26;;;;;;;7.40;4.10;;;;;;;;;;10287437;28;20050;-66
2023/12/13 14:29:26;;;;;;;5.68;4.15;;;;;;;;;;10287963;28;20383;-65
2023/12/13 14:34:27;;;;;;;6.65;4.00;;;;;;;;;;10289476;28;20022;-66
2023/12/13 14:39:27;;;;;;;4.82;3.70;;;;;;;;;;10287623;28;20019;-66
2023/12/13 14:44:29;;;;;;;7.93;4.20;;;;;;;;;;10288632;28;20061;-66
2023/12/13 14:49:29;;;;;;;9.50;3.90;;;;;;;;;;10287719;28;20065;-65
2023/12/13 14:54:31;;;;;;;11.77;3.92;;;;;;;;;;10286010;28;20034;-66
2023/12/13 14:59:31;;;;;;;6.57;3.80;;;;;;;;;;10286123;28;20047;-66
2023/12/13 15:04:32;;;;;;;5.60;3.67;;;;;;;;;;10285872;28;20525;-65
2023/12/13 15:09:33;;;;;;;6.70;3.78;;;;;;;;;;10286187;28;20035;-65
2023/12/13 15:14:33;;;;;;;5.68;3.88;;;;;;;;;;10278816;28;20027;-65
2023/12/13 15:19:34;;;;;;;12.90;4.45;;;;;;;;;;10283024;28;20085;-65
2023/12/13 15:24:34;;;;;;;5.75;3.58;;;;;;;;;;10287162;28;20030;-64
2023/12/13 15:29:35;;;;;;;10.25;3.83;;;;;;;;;;10287597;28;20243;-64
2023/12/13 15:34:36;;;;;;;6.90;4.13;;;;;;;;;;10288464;28;20493;-65
2023/12/13 15:39:37;;;;;;;6.53;3.97;;;;;;;;;;10287399;28;20034;-65
2023/12/13 15:44:38;;;;;;;8.60;4.03;;;;;;;;;;10285755;28;20574;-65
2023/12/13 15:49:38;;;;;;;8.23;4.50;;;;;;;;;;10274008;28;20034;-65
2023/12/13 15:54:39;;;;;;;16.92;4.15;;;;;;;;;;10270876;28;20089;-65
2023/12/13 15:59:40;;;;;;;9.18;4.28;;;;;;;;;;10273297;28;20058;-65
2023/12/13 16:04:40;;;;;;;9.20;3.55;;;;;;;;;;10274276;28;20364;-66
2023/12/13 16:09:41;;;;;;;7.80;3.85;;;;;;;;;;10272638;28;20434;-65
2023/12/13 16:14:42;;;;;;;7.28;4.35;;;;;;;;;;10280375;28;20030;-66
2023/12/13 16:19:42;;;;;;;5.72;3.90;;;;;;;;;;10269859;28;20085;-65
2023/12/13 16:24:43;;;;;;;5.55;4.00;;;;;;;;;;10284522;28;20053;-65
2023/12/13 16:29:43;;;;;;;11.52;3.83;;;;;;;;;;10279303;28;20030;-65
2023/12/13 16:34:44;;;;;;;5.65;3.83;;;;;;;;;;10276427;28;20031;-65
2023/12/13 16:39:44;;;;;;;5.88;3.97;;;;;;;;;;10283299;28;20027;-65
2023/12/13 16:44:45;;;;;;;5.72;3.70;;;;;;;;;;10284276;28;20034;-65
2023/12/13 16:49:46;;;;;;;6.85;3.72;;;;;;;;;;10280821;28;20027;-66
2023/12/13 16:54:47;;;;;;;7.70;3.53;;;;;;;;;;10285572;28;20023;-65
2023/12/13 16:59:48;;;;;;;4.50;3.70;;;;;;;;;;10281778;28;20047;-65
2023/12/13 17:04:49;;;;;;;6.07;3.97;;;;;;;;;;10273119;28;20038;-65
2023/12/13 17:09:50;;;;;;;4.57;4.07;;;;;;;;;;10271288;28;20023;-65
2023/12/13 17:14:52;;;;;;;9.15;4.22;;;;;;;;;;10271085;28;20034;-65
2023/12/13 17:19:53;;;;;;;12.40;4.72;;;;;;;;;;10270987;28;20089;-65
2023/12/13 17:24:54;;;;;;;6.65;4.53;;;;;;;;;;10270650;28;20026;-65
2023/12/13 17:29:55;;;;;;;10.15;4.78;;;;;;;;;;10275620;28;20060;-65
2023/12/13 17:34:55;;;;;;;5.53;4.18;;;;;;;;;;10270515;28;20035;-65
2023/12/13 17:39:56;;;;;;;8.00;4.80;;;;;;;;;;10274548;28;20019;-67
2023/12/13 17:44:56;;;;;;;8.00;4.38;;;;;;;;;;10279236;28;20042;-66
2023/12/13 17:49:57;;;;;;;4.93;4.40;;;;;;;;;;10279708;28;20027;-66
2023/12/13 17:54:58;;;;;;;11.80;4.68;;;;;;;;;;10283853;28;20477;-64
2023/12/13 17:59:59;;;;;;;17.60;4.97;;;;;;;;;;10289064;28;20054;-66
2023/12/13 18:05:00;;;;;;;11.02;4.65;;;;;;;;;;10291459;28;20378;-65
2023/12/13 18:10:01;;;;;;;18.00;4.72;;;;;;;;;;10290602;28;20027;-65
2023/12/13 18:15:03;;;;;;;11.50;5.35;;;;;;;;;;10290899;28;20030;-65
2023/12/13 18:20:04;;;;;;;9.38;4.13;;;;;;;;;;10287894;28;20031;-68
2023/12/13 18:25:06;;;;;;;7.22;4.72;;;;;;;;;;10289811;28;20114;-66
2023/12/13 18:30:07;;;;;;;6.25;4.50;;;;;;;;;;10289474;28;20031;-64
2023/12/13 18:35:08;;;;;;;8.40;4.68;;;;;;;;;;10289292;28;20125;-65
2023/12/13 18:40:09;;;;;;;5.82;4.22;;;;;;;;;;10289941;28;20026;-64
2023/12/13 18:45:13;;;;;;;5.35;4.28;;;;;;;;;;10289109;28;20038;-64
2023/12/13 18:50:13;;;;;;;5.05;4.03;;;;;;;;;;10288895;28;20418;-64
2023/12/13 18:55:14;;;;;;;5.85;4.10;;;;;;;;;;10289525;28;20034;-65
2023/12/13 19:00:15;;;;;;;7.80;3.80;;;;;;;;;;10286080;28;20047;-64
2023/12/13 19:05:16;;;;;;;10.48;3.97;;;;;;;;;;10288632;28;20030;-65
2023/12/13 19:10:16;;;;;;;6.32;4.40;;;;;;;;;;10289328;28;20031;-65
2023/12/13 19:15:17;;;;;;;5.35;4.28;;;;;;;;;;10288123;28;20111;-64
2023/12/13 19:20:18;;;;;;;11.27;4.15;;;;;;;;;;10284236;28;20073;-64
2023/12/13 19:25:18;;;;;;;5.80;4.20;;;;;;;;;;10289484;28;20031;-65
2023/12/13 19:30:19;;;;;;;8.02;4.47;;;;;;;;;;10286720;28;20035;-65
2023/12/13 19:35:20;;;;;;;8.88;4.10;;;;;;;;;;10288496;28;20027;-66
2023/12/13 19:40:20;;;;;;;5.78;4.22;;;;;;;;;;10285948;28;20034;-63
2023/12/13 19:45:21;;;;;;;6.28;4.63;;;;;;;;;;10276950;28;20026;-64
2023/12/13 19:50:21;;;;;;;5.95;4.30;;;;;;;;;;10287235;28;20038;-65
2023/12/13 19:55:22;;;;;;;10.73;5.07;;;;;;;;;;10282560;28;20027;-65
2023/12/13 20:00:23;;;;;;;21.63;6.55;;;;;;;;;;10272695;28;20112;-64
2023/12/13 20:05:24;;;;;;;11.63;5.13;;;;;;;;;;10275960;28;20074;-64
2023/12/13 20:10:24;;;;;;;10.55;5.13;;;;;;;;;;10276662;28;20037;-64
2023/12/13 20:15:25;;;;;;;15.98;5.55;;;;;;;;;;10274597;28;20035;-64
2023/12/13 20:20:26;;;;;;;7.15;4.85;;;;;;;;;;10273686;28;20167;-66
2023/12/13 20:25:29;;;;;;;9.65;4.82;;;;;;;;;;10271646;28;20449;-65
2023/12/13 20:30:30;;;;;;;14.10;5.63;;;;;;;;;;10271695;28;20415;-67
2023/12/13 20:35:31;;;;;;;9.88;4.72;;;;;;;;;;10280459;28;20038;-67
2023/12/13 20:40:31;;;;;;;11.45;5.22;;;;;;;;;;10284869;28;20023;-68
2023/12/13 20:45:32;;;;;;;25.27;5.07;;;;;;;;;;10280368;28;20386;-66
2023/12/13 20:50:33;;;;;;;41.03;7.30;;;;;;;;;;10285662;28;20101;-65
2023/12/13 20:55:34;;;;;;;23.92;6.57;;;;;;;;;;10286127;28;20042;-66
2023/12/13 21:00:35;;;;;;;11.70;5.38;;;;;;;;;;10277993;28;20441;-66
2023/12/13 21:05:36;;;;;;;13.40;5.40;;;;;;;;;;10285227;28;20081;-66
2023/12/13 21:10:37;;;;;;;17.92;5.72;;;;;;;;;;10286421;28;20425;-66
2023/12/13 21:15:38;;;;;;;17.63;5.53;;;;;;;;;;10285739;28;20023;-66
2023/12/13 21:20:38;;;;;;;10.95;5.45;;;;;;;;;;10285475;28;20054;-66
2023/12/13 21:25:39;;;;;;;10.23;5.30;;;;;;;;;;10286212;28;20035;-65
2023/12/13 21:30:39;;;;;;;7.03;4.68;;;;;;;;;;10291845;28;20117;-68
2023/12/13 21:35:40;;;;;;;13.40;4.60;;;;;;;;;;10292164;28;20046;-67
2023/12/13 21:40:41;;;;;;;13.48;4.43;;;;;;;;;;10292889;28;20031;-67
2023/12/13 21:45:42;;;;;;;7.80;3.90;;;;;;;;;;10289186;28;20022;-67
2023/12/13 21:50:44;;;;;;;16.63;4.82;;;;;;;;;;10282328;28;20126;-67
2023/12/13 21:55:49;;;;;;;33.05;6.95;;;;;;;;;;10291485;28;20026;-66
2023/12/13 22:00:50;;;;;;;19.50;5.72;;;;;;;;;;10281505;28;20054;-67
2023/12/13 22:05:51;;;;;;;13.20;5.15;;;;;;;;;;10279188;28;20026;-67
2023/12/13 22:10:52;;;;;;;17.20;5.68;;;;;;;;;;10279143;28;20434;-67
2023/12/13 22:15:53;;;;;;;12.50;5.13;;;;;;;;;;10281839;28;20480;-67
2023/12/13 22:20:56;;;;;;;9.98;5.03;;;;;;;;;;10291277;28;20037;-67
2023/12/13 22:25:57;;;;;;;10.05;4.85;;;;;;;;;;10288736;28;20023;-67
2023/12/13 22:30:58;;;;;;;13.75;5.53;;;;;;;;;;10290198;28;20026;-67
2023/12/13 22:35:58;;;;;;;9.73;5.15;;;;;;;;;;10285525;28;20041;-67
2023/12/13 22:40:59;;;;;;;17.92;5.55;;;;;;;;;;10289097;28;20054;-67
2023/12/13 22:45:59;;;;;;;18.15;4.55;;;;;;;;;;10289490;28;20026;-67
2023/12/13 22:51:00;;;;;;;14.95;5.60;;;;;;;;;;10288631;28;20026;-67
2023/12/13 22:56:01;;;;;;;12.88;4.68;;;;;;;;;;10288382;28;20034;-73
2023/12/13 23:01:03;;;;;;;19.50;4.80;;;;;;;;;;10287496;28;20047;-68
2023/12/13 23:06:03;;;;;;;8.50;4.43;;;;;;;;;;10283751;28;20034;-68
2023/12/13 23:11:04;;;;;;;13.95;4.80;;;;;;;;;;10288341;28;20030;-74
2023/12/13 23:16:05;;;;;;;8.52;4.88;;;;;;;;;;10289135;28;20026;-69
2023/12/13 23:21:07;;;;;;;13.00;4.82;;;;;;;;;;10288968;28;20031;-71
2023/12/13 23:26:08;;;;;;;10.05;4.18;;;;;;;;;;10288293;28;20023;-70
2023/12/13 23:31:09;;;;;;;6.85;4.18;;;;;;;;;;10288585;28;20474;-70
2023/12/13 23:36:09;;;;;;;21.05;4.43;;;;;;;;;;10286907;28;20115;-71
2023/12/13 23:41:10;;;;;;;10.43;4.03;;;;;;;;;;10286688;28;20049;-71
2023/12/13 23:46:11;;;;;;;11.55;3.90;;;;;;;;;;10288283;28;20030;-71
2023/12/13 23:51:11;;;;;;;8.80;3.95;;;;;;;;;;10287621;28;20038;-71
2023/12/13 23:56:20;;;;;;;8.68;4.50;;;;;;;;;;10288296;28;20031;-66
